Observation data for Dimmitt on 01/18/2019      Previous  Date  Next       Current Mesonet Observations  Soil Data  Daily Summary Page  Observations in Plain Language
KDMS 180600Z 22010KT 06/M03 A2999 RMK A01 T00571031  RH  053%=      5-min Rain = 0
KDMS 180605Z 22010KT 06/M03 A2999 RMK A01 T00581029  RH  054%=      5-min Rain = 0
KDMS 180610Z 22012KT 06/M03 A2999 RMK A01 T00601027  RH  054%=      5-min Rain = 0
KDMS 180615Z 22014KT 06/M02 A2999 RMK A01 T00631024  RH  054%=      5-min Rain = 0
KDMS 180620Z 22014G19KT 06/M02 A2999 RMK A01 T00631023  RH  054%=      5-min Rain = 0
KDMS 180625Z 22013KT 06/M02 A2998 RMK A01 T00591022  RH  056%=      5-min Rain = 0
KDMS 180630Z 22014KT 06/M02 A2998 RMK A01 T00581021  RH  057%=      5-min Rain = 0
KDMS 180635Z 22014KT 06/M02 A2998 RMK A01 T00591021  RH  057%=      5-min Rain = 0
KDMS 180640Z 22014KT 06/M02 A2997 RMK A01 T00591021  RH  057%=      5-min Rain = 0
KDMS 180645Z 22014KT 06/M02 A2997 RMK A01 T00571021  RH  058%=      5-min Rain = 0
KDMS 180650Z 22014KT 06/M02 A2997 RMK A01 T00561021  RH  058%=      5-min Rain = 0
KDMS 180655Z 22014KT 06/M02 A2996 RMK A01 T00551020  RH  059%=      5-min Rain = 0
KDMS 180700Z 22014G19KT 06/M02 A2996 RMK A01 T00561020  RH  059%=      5-min Rain = 0
KDMS 180705Z 22015KT 06/M02 A2996 RMK A01 T00561020  RH  058%=      5-min Rain = 0
KDMS 180710Z 22014KT 06/M02 A2995 RMK A01 T00561021  RH  058%=      5-min Rain = 0
KDMS 180715Z 22014KT 05/M02 A2995 RMK A01 T00541021  RH  059%=      5-min Rain = 0
KDMS 180720Z 22013KT 05/M02 A2994 RMK A01 T00521022  RH  059%=      5-min Rain = 0
KDMS 180725Z 22013KT 05/M02 A2994 RMK A01 T00501022  RH  060%=      5-min Rain = 0
KDMS 180730Z 22013KT 05/M02 A2994 RMK A01 T00491024  RH  060%=      5-min Rain = 0
KDMS 180735Z 22012KT 05/M02 A2994 RMK A01 T00481024  RH  060%=      5-min Rain = 0
KDMS 180740Z 21012KT 05/M03 A2993 RMK A01 T00471025  RH  060%=      5-min Rain = 0
KDMS 180745Z 21012KT 05/M03 A2992 RMK A01 T00461025  RH  061%=      5-min Rain = 0
KDMS 180750Z 22012KT 05/M03 A2992 RMK A01 T00501025  RH  059%=      5-min Rain = 0
KDMS 180755Z 22014KT 05/M03 A2992 RMK A01 T00491025  RH  059%=      5-min Rain = 0
KDMS 180800Z 23013KT 05/M02 A2992 RMK A01 T00491024  RH  060%=      5-min Rain = 0
KDMS 180805Z 23013KT 05/M03 A2992 RMK A01 T00481025  RH  060%=      5-min Rain = 0
KDMS 180810Z 23013KT 05/M03 A2992 RMK A01 T00461025  RH  061%=      5-min Rain = 0
KDMS 180815Z 23014KT 05/M03 A2992 RMK A01 T00461025  RH  060%=      5-min Rain = 0
KDMS 180820Z 23013KT 05/M03 A2992 RMK A01 T00461026  RH  060%=      5-min Rain = 0
KDMS 180825Z 23014KT 05/M03 A2992 RMK A01 T00511026  RH  058%=      5-min Rain = 0
KDMS 180830Z 23013KT 05/M03 A2991 RMK A01 T00511026  RH  058%=      5-min Rain = 0
KDMS 180835Z 23013KT 05/M03 A2991 RMK A01 T00541027  RH  056%=      5-min Rain = 0
KDMS 180840Z 23014KT 06/M03 A2991 RMK A01 T00551028  RH  056%=      5-min Rain = 0
KDMS 180845Z 23013KT 05/M03 A2991 RMK A01 T00541027  RH  056%=      5-min Rain = 0
KDMS 180850Z 23014KT 06/M03 A2991 RMK A01 T00551028  RH  056%=      5-min Rain = 0
KDMS 180855Z 23013KT 06/M03 A2991 RMK A01 T00561027  RH  055%=      5-min Rain = 0
KDMS 180900Z 23013KT 06/M03 A2991 RMK A01 T00571028  RH  055%=      5-min Rain = 0
KDMS 180905Z 23014KT 06/M03 A299 RMK A01 T00561028  RH  055%=      5-min Rain = 0
KDMS 180910Z 23014KT 06/M03 A299 RMK A01 T00571028  RH  055%=      5-min Rain = 0
KDMS 180915Z 23016G21KT 06/M03 A299 RMK A01 T00611028  RH  053%=      5-min Rain = 0
KDMS 180920Z 23016G21KT 06/M03 A299 RMK A01 T00641028  RH  052%=      5-min Rain = 0
KDMS 180925Z 24016KT 07/M03 A299 RMK A01 T00651028  RH  052%=      5-min Rain = 0
KDMS 180930Z 24014KT 06/M03 A299 RMK A01 T00631029  RH  052%=      5-min Rain = 0
KDMS 180935Z 23015KT 06/M03 A2989 RMK A01 T00631028  RH  052%=      5-min Rain = 0
KDMS 180940Z 23016KT 06/M03 A2989 RMK A01 T00631028  RH  053%=      5-min Rain = 0
KDMS 180945Z 23015KT 06/M03 A2989 RMK A01 T00631027  RH  053%=      5-min Rain = 0
KDMS 180950Z 23014G19KT 06/M03 A2989 RMK A01 T00631027  RH  053%=      5-min Rain = 0
KDMS 180955Z 23015KT 06/M03 A2989 RMK A01 T00631027  RH  053%=      5-min Rain = 0
KDMS 181000Z 23014KT 06/M03 A2988 RMK A01 T00621026  RH  054%=      5-min Rain = 0
KDMS 181005Z 23014KT 06/M03 A2988 RMK A01 T00591027  RH  055%=      5-min Rain = 0
KDMS 181010Z 23013KT 06/M03 A2988 RMK A01 T00551027  RH  056%=      5-min Rain = 0
KDMS 181015Z 23014KT 05/M03 A2987 RMK A01 T00541027  RH  056%=      5-min Rain = 0
KDMS 181020Z 23015G20KT 06/M03 A2987 RMK A01 T00561026  RH  056%=      5-min Rain = 0
KDMS 181025Z 23014KT 06/M03 A2986 RMK A01 T00571026  RH  056%=      5-min Rain = 0
KDMS 181030Z 23015KT 06/M03 A2986 RMK A01 T00561026  RH  056%=      5-min Rain = 0
KDMS 181035Z 23013KT 06/M03 A2985 RMK A01 T00551026  RH  056%=      5-min Rain = 0
KDMS 181040Z 23014G19KT 06/M03 A2985 RMK A01 T00561025  RH  056%=      5-min Rain = 0
KDMS 181045Z 23013KT 06/M03 A2985 RMK A01 T00591025  RH  055%=      5-min Rain = 0
KDMS 181050Z 23012KT 06/M02 A2985 RMK A01 T00591024  RH  056%=      5-min Rain = 0
KDMS 181055Z 22012KT 06/M02 A2984 RMK A01 T00591023  RH  056%=      5-min Rain = 0
KDMS 181100Z 22012KT 06/M02 A2984 RMK A01 T00561023  RH  057%=      5-min Rain = 0
KDMS 181105Z 22013KT 05/M02 A2983 RMK A01 T00531023  RH  059%=      5-min Rain = 0
KDMS 181110Z 22014KT 05/M02 A2983 RMK A01 T00491023  RH  060%=      5-min Rain = 0
KDMS 181115Z 22015G20KT 05/M02 A2983 RMK A01 T00501023  RH  060%=      5-min Rain = 0
KDMS 181120Z 23015KT 05/M02 A2982 RMK A01 T00511022  RH  060%=      5-min Rain = 0
KDMS 181125Z 22014G19KT 05/M02 A2982 RMK A01 T00501022  RH  060%=      5-min Rain = 0
KDMS 181130Z 22015KT 05/M02 A2982 RMK A01 T00501022  RH  060%=      5-min Rain = 0
KDMS 181135Z 22016KT 05/M02 A2981 RMK A01 T00501023  RH  060%=      5-min Rain = 0
KDMS 181140Z 22015G20KT 05/M02 A2981 RMK A01 T00491022  RH  060%=      5-min Rain = 0
KDMS 181145Z 22015KT 05/M02 A2981 RMK A01 T00491022  RH  060%=      5-min Rain = 0
KDMS 181150Z 23015G22KT 05/M02 A2981 RMK A01 T00481021  RH  061%=      5-min Rain = 0
KDMS 181155Z 22016KT 05/M02 A2981 RMK A01 T00491022  RH  061%=      5-min Rain = 0
KDMS 181200Z 23017KT 05/M02 A2981 RMK A01 T00501022  RH  060%=      5-min Rain = 0
KDMS 181205Z 23016G21KT 05/M02 A2981 RMK A01 T00511022  RH  060%=      5-min Rain = 0
KDMS 181210Z 23016KT 05/M02 A298 RMK A01 T00541023  RH  058%=      5-min Rain = 0
KDMS 181215Z 23015KT 06/M02 A298 RMK A01 T00581023  RH  056%=      5-min Rain = 0
KDMS 181220Z 24014KT 06/M03 A298 RMK A01 T00591025  RH  055%=      5-min Rain = 0
KDMS 181225Z 23015KT 06/M02 A298 RMK A01 T00581024  RH  056%=      5-min Rain = 0
KDMS 181230Z 23014KT 06/M02 A298 RMK A01 T00611022  RH  055%=      5-min Rain = 0
KDMS 181235Z 23016G21KT 07/M02 A2979 RMK A01 T00661023  RH  053%=      5-min Rain = 0
KDMS 181240Z 23017KT 07/M02 A2979 RMK A01 T00701024  RH  052%=      5-min Rain = 0
KDMS 181245Z 23016G21KT 07/M02 A2979 RMK A01 T00721023  RH  051%=      5-min Rain = 0
KDMS 181250Z 23015G20KT 07/M02 A2979 RMK A01 T00721023  RH  051%=      5-min Rain = 0
KDMS 181255Z 23015KT 07/M02 A2979 RMK A01 T00721023  RH  051%=      5-min Rain = 0
KDMS 181300Z 23015KT 07/M02 A2979 RMK A01 T00711023  RH  051%=      5-min Rain = 0
KDMS 181305Z 23016KT 07/M02 A2978 RMK A01 T00701022  RH  052%=      5-min Rain = 0
KDMS 181310Z 23016KT 07/M02 A2979 RMK A01 T00701022  RH  053%=      5-min Rain = 0
KDMS 181315Z 23017KT 07/M02 A2978 RMK A01 T00711021  RH  052%=      5-min Rain = 0
KDMS 181320Z 23016G23KT 07/M02 A2978 RMK A01 T00741020  RH  052%=      5-min Rain = 0
KDMS 181325Z 23017G23KT 08/M02 A2979 RMK A01 T00771021  RH  050%=      5-min Rain = 0
KDMS 181330Z 24016G22KT 08/M02 A2979 RMK A01 T00781021  RH  050%=      5-min Rain = 0
KDMS 181335Z 24016KT 08/M02 A2979 RMK A01 T00791021  RH  050%=      5-min Rain = 0
KDMS 181340Z 24015G20KT 08/M02 A298 RMK A01 T00781021  RH  050%=      5-min Rain = 0
KDMS 181345Z 24015KT 08/M02 A298 RMK A01 T00771020  RH  051%=      5-min Rain = 0
KDMS 181350Z 24015KT 08/M02 A298 RMK A01 T00751020  RH  051%=      5-min Rain = 0
KDMS 181355Z 24014KT 07/M02 A2979 RMK A01 T00721020  RH  052%=      5-min Rain = 0
KDMS 181400Z 24015KT 07/M02 A2979 RMK A01 T00711020  RH  053%=      5-min Rain = 0
KDMS 181405Z 24015G22KT 07/M02 A2979 RMK A01 T00691020  RH  053%=      5-min Rain = 0
KDMS 181410Z 24017G23KT 07/M02 A2979 RMK A01 T00711020  RH  053%=      5-min Rain = 0
KDMS 181415Z 25017KT 08/M02 A2979 RMK A01 T00771019  RH  051%=      5-min Rain = 0
KDMS 181420Z 24017KT 08/M02 A2979 RMK A01 T00771019  RH  051%=      5-min Rain = 0
KDMS 181425Z 24015G22KT 08/M02 A2979 RMK A01 T00751018  RH  052%=      5-min Rain = 0
KDMS 181430Z 24016G21KT 08/M02 A2979 RMK A01 T00791017  RH  051%=      5-min Rain = 0
KDMS 181435Z 24014KT 08/M02 A2979 RMK A01 T00821015  RH  051%=      5-min Rain = 0
KDMS 181440Z 23015G20KT 08/M02 A2979 RMK A01 T00831015  RH  051%=      5-min Rain = 0
KDMS 181445Z 24016G21KT 08/M02 A2979 RMK A01 T00821015  RH  051%=      5-min Rain = 0
KDMS 181450Z 24016G21KT 09/M01 A2979 RMK A01 T00851014  RH  050%=      5-min Rain = 0
KDMS 181455Z 24018G25KT 09/M01 A2979 RMK A01 T00891013  RH  049%=      5-min Rain = 0
KDMS 181500Z 24020G25KT 09/M01 A2979 RMK A01 T00931013  RH  048%=      5-min Rain = 0
KDMS 181505Z 24018G24KT 10/M01 A2979 RMK A01 T00961013  RH  047%=      5-min Rain = 0
KDMS 181510Z 24020G25KT 10/M01 A2979 RMK A01 T00971013  RH  047%=      5-min Rain = 0
KDMS 181515Z 24020KT 10/M01 A2979 RMK A01 T00971014  RH  047%=      5-min Rain = 0
KDMS 181520Z 24020G26KT 10/M02 A2979 RMK A01 T00961015  RH  046%=      5-min Rain = 0
KDMS 181525Z 24018KT 10/M01 A2979 RMK A01 T00971014  RH  046%=      5-min Rain = 0
KDMS 181530Z 24019G26KT 10/M01 A2979 RMK A01 T01011012  RH  046%=      5-min Rain = 0
KDMS 181535Z 24020KT 11/M01 A2979 RMK A01 T01081009  RH  045%=      5-min Rain = 0
KDMS 181540Z 25022G29KT 11/M01 A2979 RMK A01 T01101007  RH  045%=      5-min Rain = 0
KDMS 181545Z 25022G28KT 11/M00 A2978 RMK A01 T01111004  RH  045%=      5-min Rain = 0
KDMS 181550Z 25020G25KT 11/M00 A2978 RMK A01 T01141002  RH  045%=      5-min Rain = 0
KDMS 181555Z 25021G26KT 12/M00 A2978 RMK A01 T01151001  RH  045%=      5-min Rain = 0
KDMS 181600Z 25023KT 12/M00 A2978 RMK A01 T01171001  RH  045%=      5-min Rain = 0
KDMS 181605Z 25020G26KT 12/00 A2978 RMK A01 T011600-0  RH  045%=      5-min Rain = 0
KDMS 181610Z 25019KT 11/M00 A2977 RMK A01 T01131001  RH  046%=      5-min Rain = 0
KDMS 181615Z 25017G22KT 11/00 A2978 RMK A01 T01130000  RH  046%=      5-min Rain = 0
KDMS 181620Z 24017KT 12/00 A2977 RMK A01 T01150002  RH  046%=      5-min Rain = 0
KDMS 181625Z 24016KT 12/01 A2977 RMK A01 T01180005  RH  047%=      5-min Rain = 0
KDMS 181630Z 24017G22KT 12/01 A2977 RMK A01 T01200008  RH  047%=      5-min Rain = 0
KDMS 181635Z 25019G31KT 13/02 A2977 RMK A01 T01300015  RH  046%=      5-min Rain = 0
KDMS 181640Z 26027G34KT 14/02 A2976 RMK A01 T01410018  RH  044%=      5-min Rain = 0
KDMS 181645Z 25029G38KT 14/02 A2975 RMK A01 T01430017  RH  043%=      5-min Rain = 0
KDMS 181650Z 25029G36KT 14/02 A2975 RMK A01 T01440016  RH  042%=      5-min Rain = 0
KDMS 181655Z 25028G36KT 15/02 A2976 RMK A01 T01460017  RH  042%=      5-min Rain = 0
KDMS 181700Z 25028G36KT 15/02 A2975 RMK A01 T01480017  RH  042%=      5-min Rain = 0
KDMS 181705Z 25028G36KT 15/02 A2975 RMK A01 T01480017  RH  042%=      5-min Rain = 0
KDMS 181710Z 25029G38KT 15/02 A2974 RMK A01 T01500017  RH  041%=      5-min Rain = 0
KDMS 181715Z 25030G40KT 15/02 A2974 RMK A01 T01510016  RH  041%=      5-min Rain = 0
KDMS 181720Z 25030G41KT 15/02 A2974 RMK A01 T01510015  RH  040%=      5-min Rain = 0
KDMS 181725Z 25032G38KT 15/01 A2974 RMK A01 T01510014  RH  040%=      5-min Rain = 0
KDMS 181730Z 25034G42KT 15/01 A2974 RMK A01 T01510014  RH  040%=      5-min Rain = 0
KDMS 181735Z 25032G39KT 15/01 A2973 RMK A01 T01510014  RH  040%=      5-min Rain = 0
KDMS 181740Z 25031G39KT 15/01 A2973 RMK A01 T01530014  RH  039%=      5-min Rain = 0
KDMS 181745Z 25031G39KT 16/01 A2972 RMK A01 T01550013  RH  039%=      5-min Rain = 0
KDMS 181750Z 24031G39KT 16/01 A2971 RMK A01 T01550011  RH  038%=      5-min Rain = 0
KDMS 181755Z 26031G40KT 16/01 A2971 RMK A01 T01580005  RH  036%=      5-min Rain = 0
KDMS 181800Z 26031G37KT 16/00 A2972 RMK A01 T01600003  RH  035%=      5-min Rain = 0
KDMS 181805Z 26028G35KT 16/00 A2972 RMK A01 T01610004  RH  035%=      5-min Rain = 0
KDMS 181810Z 26030G38KT 16/01 A2971 RMK A01 T01620006  RH  035%=      5-min Rain = 0
KDMS 181815Z 26032G41KT 16/01 A2971 RMK A01 T01600005  RH  035%=      5-min Rain = 0
KDMS 181820Z 27027G34KT 16/01 A2971 RMK A01 T01600011  RH  037%=      5-min Rain = 0
KDMS 181825Z 26027G36KT 16/01 A297 RMK A01 T01590014  RH  038%=      5-min Rain = 0
KDMS 181830Z 27030G39KT 16/01 A297 RMK A01 T01600012  RH  037%=      5-min Rain = 0
KDMS 181835Z 26029G37KT 16/01 A2969 RMK A01 T01600012  RH  037%=      5-min Rain = 0
KDMS 181840Z 26031G39KT 16/01 A2969 RMK A01 T01590009  RH  037%=      5-min Rain = 0
KDMS 181845Z 26030G44KT 16/01 A2968 RMK A01 T01620006  RH  035%=      5-min Rain = 0
KDMS 181850Z 27028G36KT 17/M01 A2968 RMK A01 T01661008  RH  031%=      5-min Rain = 0
KDMS 181855Z 26030G39KT 17/M01 A2967 RMK A01 T01661009  RH  031%=      5-min Rain = 0
KDMS 181900Z 26030G38KT 17/M01 A2967 RMK A01 T01661009  RH  031%=      5-min Rain = 0
KDMS 181905Z 26029G38KT 17/M01 A2967 RMK A01 T01651007  RH  031%=      5-min Rain = 0
KDMS 181910Z 26028G35KT 17/M00 A2966 RMK A01 T01651004  RH  032%=      5-min Rain = 0
KDMS 181915Z 26029G39KT 17/M00 A2966 RMK A01 T01651003  RH  032%=      5-min Rain = 0
KDMS 181920Z 26031G37KT 17/M00 A2965 RMK A01 T01651004  RH  032%=      5-min Rain = 0
KDMS 181925Z 26026G34KT 17/00 A2965 RMK A01 T01700000  RH  032%=      5-min Rain = 0
KDMS 181930Z 25028G35KT 17/00 A2965 RMK A01 T01720003  RH  032%=      5-min Rain = 0
KDMS 181935Z 26028G38KT 17/M00 A2965 RMK A01 T01701001  RH  032%=      5-min Rain = 0
KDMS 181940Z 26029G37KT 17/M01 A2964 RMK A01 T01651006  RH  032%=      5-min Rain = 0
KDMS 181945Z 26026G36KT 16/M01 A2964 RMK A01 T01631010  RH  031%=      5-min Rain = 0
KDMS 181950Z 26029G36KT 17/M01 A2963 RMK A01 T01661010  RH  030%=      5-min Rain = 0
KDMS 181955Z 26028G34KT 17/M01 A2963 RMK A01 T01681008  RH  031%=      5-min Rain = 0
KDMS 182000Z 27028G37KT 16/M01 A2963 RMK A01 T01641014  RH  030%=      5-min Rain = 0
KDMS 182005Z 27022G32KT 17/M00 A2964 RMK A01 T01681004  RH  031%=      5-min Rain = 0
KDMS 182010Z 27022G31KT 17/00 A2963 RMK A01 T01730000  RH  031%=      5-min Rain = 0
KDMS 182015Z 27025G30KT 17/M01 A2963 RMK A01 T01711009  RH  030%=      5-min Rain = 0
KDMS 182020Z 27023G28KT 18/M01 A2963 RMK A01 T01771013  RH  028%=      5-min Rain = 0
KDMS 182025Z 27025G30KT 18/M02 A2962 RMK A01 T01751015  RH  028%=      5-min Rain = 0
KDMS 182030Z 27024G31KT 18/M03 A2963 RMK A01 T01761025  RH  026%=      5-min Rain = 0
KDMS 182035Z 27023G32KT 17/M03 A2963 RMK A01 T01691032  RH  025%=      5-min Rain = 0
KDMS 182040Z 27026G31KT 17/M04 A2963 RMK A01 T01681036  RH  025%=      5-min Rain = 0
KDMS 182045Z 27023G29KT 17/M03 A2963 RMK A01 T01691032  RH  025%=      5-min Rain = 0
KDMS 182050Z 27024G29KT 17/M03 A2963 RMK A01 T01731032  RH  025%=      5-min Rain = 0
KDMS 182055Z 27021G28KT 17/M04 A2962 RMK A01 T01731036  RH  024%=      5-min Rain = 0
KDMS 182100Z 26021G28KT 18/M03 A2962 RMK A01 T01761026  RH  025%=      5-min Rain = 0
KDMS 182105Z 25022G31KT 17/M02 A2962 RMK A01 T01721020  RH  027%=      5-min Rain = 0
KDMS 182110Z 25024G32KT 17/M02 A2962 RMK A01 T01721020  RH  027%=      5-min Rain = 0
KDMS 182115Z 26024G30KT 16/M04 A2962 RMK A01 T01641035  RH  026%=      5-min Rain = 0
KDMS 182120Z 26026G34KT 17/M04 A2962 RMK A01 T01671037  RH  024%=      5-min Rain = 0
KDMS 182125Z 26026G35KT 17/M04 A2962 RMK A01 T01691040  RH  024%=      5-min Rain = 0
KDMS 182130Z 26024G32KT 16/M04 A2962 RMK A01 T01631044  RH  024%=      5-min Rain = 0
KDMS 182135Z 26024G32KT 16/M05 A2962 RMK A01 T01591047  RH  024%=      5-min Rain = 0
KDMS 182140Z 26027G37KT 16/M04 A2963 RMK A01 T01571041  RH  025%=      5-min Rain = 0
KDMS 182145Z 26031G40KT 15/M04 A2963 RMK A01 T01521043  RH  026%=      5-min Rain = 0
KDMS 182150Z 27026G36KT 15/M05 A2963 RMK A01 T01511049  RH  025%=      5-min Rain = 0
KDMS 182155Z 27028G36KT 15/M06 A2963 RMK A01 T01511060  RH  023%=      5-min Rain = 0
KDMS 182200Z 27026G32KT 15/M06 A2964 RMK A01 T01491055  RH  024%=      5-min Rain = 0
KDMS 182205Z 27025G33KT 15/M05 A2964 RMK A01 T01471052  RH  025%=      5-min Rain = 0
KDMS 182210Z 26027G34KT 14/M05 A2963 RMK A01 T01441050  RH  026%=      5-min Rain = 0
KDMS 182215Z 26024G32KT 14/M05 A2964 RMK A01 T01411049  RH  027%=      5-min Rain = 0
KDMS 182220Z 27022G29KT 14/M05 A2964 RMK A01 T01411051  RH  026%=      5-min Rain = 0
KDMS 182225Z 27023G31KT 15/M05 A2964 RMK A01 T01451053  RH  025%=      5-min Rain = 0
KDMS 182230Z 26025G33KT 14/M05 A2964 RMK A01 T01431047  RH  027%=      5-min Rain = 0
KDMS 182235Z 27022G29KT 14/M04 A2965 RMK A01 T01411043  RH  028%=      5-min Rain = 0
KDMS 182240Z 27022G27KT 14/M04 A2965 RMK A01 T01401042  RH  028%=      5-min Rain = 0
KDMS 182245Z 28021G27KT 14/M05 A2965 RMK A01 T01431053  RH  025%=      5-min Rain = 0
KDMS 182250Z 28024G30KT 15/M06 A2965 RMK A01 T01451055  RH  025%=      5-min Rain = 0
KDMS 182255Z 28025G30KT 14/M05 A2964 RMK A01 T01441053  RH  025%=      5-min Rain = 0
KDMS 182300Z 28023G30KT 14/M05 A2964 RMK A01 T01421051  RH  026%=      5-min Rain = 0
KDMS 182305Z 28022G29KT 14/M05 A2964 RMK A01 T01411048  RH  027%=      5-min Rain = 0
KDMS 182310Z 27023G30KT 14/M04 A2964 RMK A01 T01381042  RH  029%=      5-min Rain = 0
KDMS 182315Z 28024G30KT 14/M04 A2964 RMK A01 T01371042  RH  029%=      5-min Rain = 0
KDMS 182320Z 28021G26KT 14/M04 A2964 RMK A01 T01361044  RH  028%=      5-min Rain = 0
KDMS 182325Z 29020G27KT 14/M05 A2965 RMK A01 T01351047  RH  028%=      5-min Rain = 0
KDMS 182330Z 29019G26KT 13/M05 A2965 RMK A01 T01331047  RH  028%=      5-min Rain = 0
KDMS 182335Z 29019G26KT 13/M05 A2965 RMK A01 T01301045  RH  029%=      5-min Rain = 0
KDMS 182340Z 34026G40KT 12/M03 A2967 RMK A01 T01231028  RH  035%=      5-min Rain = 0
KDMS 182345Z 36029G37KT 10/M01 A2968 RMK A01 T01041012  RH  045%=      5-min Rain = 0
KDMS 182350Z 35027G36KT 10/M01 A2969 RMK A01 T00981012  RH  046%=      5-min Rain = 0
KDMS 182355Z 34028G36KT 09/M01 A2971 RMK A01 T00941012  RH  048%=      5-min Rain = 0
KDMS 190000Z 35031G38KT 09/M01 A2972 RMK A01 T00901009  RH  050%=      5-min Rain = 0
KDMS 190005Z 35028G35KT 09/M01 A2973 RMK A01 T00861006  RH  053%=      5-min Rain = 0
KDMS 190010Z 35026G34KT 08/M00 A2973 RMK A01 T00841003  RH  055%=      5-min Rain = 0
KDMS 190015Z 35025G31KT 08/M00 A2974 RMK A01 T00831002  RH  056%=      5-min Rain = 0
KDMS 190020Z 35025G30KT 08/00 A2975 RMK A01 T008200-0  RH  057%=      5-min Rain = 0
KDMS 190025Z 34026G34KT 08/01 A2976 RMK A01 T00790006  RH  061%=      5-min Rain = 0
KDMS 190030Z 34024G29KT 07/02 A2976 RMK A01 T00730015  RH  067%=      5-min Rain = 0
KDMS 190035Z 33028G37KT 07/02 A2977 RMK A01 T00700015  RH  069%=      5-min Rain = 0
KDMS 190040Z 33032G39KT 06/02 A2979 RMK A01 T00600019  RH  076%=      5-min Rain = 0
KDMS 190045Z 33029G38KT 05/03 A298 RMK A01 T00520025  RH  084%=      5-min Rain = 0
KDMS 190050Z 33026G36KT 05/03 A298 RMK A01 T00470028  RH  089%=      5-min Rain = 0.01
KDMS 190055Z 33028G40KT 05/03 A2981 RMK A01 T00450028  RH  090%=      5-min Rain = 0.01
KDMS 190100Z 34029G38KT 04/02 A2981 RMK A01 T00400023  RH  090%=      5-min Rain = 0.03
KDMS 190105Z 33029G37KT 04/02 A2982 RMK A01 T00370022  RH  091%=      5-min Rain = 0.03
KDMS 190110Z 33029G37KT 03/02 A2982 RMK A01 T00310017  RH  091%=      5-min Rain = 0.01
KDMS 190115Z 34029G35KT 03/02 A2983 RMK A01 T00300016  RH  092%=      5-min Rain = 0.02
KDMS 190120Z 33027G34KT 03/02 A2983 RMK A01 T00300017  RH  093%=      5-min Rain = 0.01
KDMS 190125Z 34024G30KT 03/02 A2984 RMK A01 T00290018  RH  094%=      5-min Rain = 0
KDMS 190130Z 34024G31KT 03/02 A2985 RMK A01 T00290018  RH  094%=      5-min Rain = 0
KDMS 190135Z 33025G32KT 03/02 A2985 RMK A01 T00280017  RH  094%=      5-min Rain = 0
KDMS 190140Z 34025G32KT 03/02 A2985 RMK A01 T00260016  RH  095%=      5-min Rain = 0
KDMS 190145Z 34023G29KT 02/02 A2986 RMK A01 T00240015  RH  095%=      5-min Rain = 0
KDMS 190150Z 34023G30KT 02/02 A2986 RMK A01 T00230015  RH  096%=      5-min Rain = 0
KDMS 190155Z 35023G30KT 02/01 A2987 RMK A01 T00220014  RH  096%=      5-min Rain = 0
KDMS 190200Z 35027G36KT 02/01 A2987 RMK A01 T00200010  RH  094%=      5-min Rain = 0
KDMS 190205Z 35024G30KT 02/01 A2987 RMK A01 T00190009  RH  095%=      5-min Rain = 0
KDMS 190210Z 35021G28KT 02/01 A2988 RMK A01 T00170009  RH  095%=      5-min Rain = 0
KDMS 190215Z 36023G29KT 02/01 A2989 RMK A01 T00160008  RH  096%=      5-min Rain = 0
KDMS 190220Z 36020G27KT 02/01 A2989 RMK A01 T00150007  RH  096%=      5-min Rain = 0
KDMS 190225Z 00019G27KT 01/01 A299 RMK A01 T00140007  RH  096%=      5-min Rain = 0
KDMS 190230Z 00019G27KT 01/01 A299 RMK A01 T00130006  RH  097%=      5-min Rain = 0
KDMS 190235Z 36018G25KT 01/01 A2991 RMK A01 T00120006  RH  097%=      5-min Rain = 0
KDMS 190240Z 36022G30KT 01/00 A2991 RMK A01 T00110004  RH  096%=      5-min Rain = 0
KDMS 190245Z 35024G30KT 01/00 A2992 RMK A01 T00110003  RH  096%=      5-min Rain = 0
KDMS 190250Z 35029G37KT 01/M00 A2993 RMK A01 T00091003  RH  093%=      5-min Rain = 0
KDMS 190255Z 35029G39KT 01/M01 A2993 RMK A01 T00061006  RH  093%=      5-min Rain = 0
KDMS 190300Z 35031G37KT 00/M01 A2994 RMK A01 T00041009  RH  092%=      5-min Rain = 0
KDMS 190305Z 35030G38KT 00/M01 A2994 RMK A01 T00041011  RH  090%=      5-min Rain = 0
KDMS 190310Z 35030G39KT 00/M01 A2995 RMK A01 T00031012  RH  091%=      5-min Rain = 0.01
KDMS 190315Z 35028G36KT 00/M01 A2995 RMK A01 T00021011  RH  092%=      5-min Rain = 0
KDMS 190320Z 35025G33KT 00/01 A2996 RMK A01 T00-000-9  RH  095%=      5-min Rain = 0
KDMS 190325Z 35026G34KT M00/M01 A2996 RMK A01 T10021009  RH  096%=      5-min Rain = 0
KDMS 190330Z 35026G33KT M00/M01 A2996 RMK A01 T10021008  RH  097%=      5-min Rain = 0
KDMS 190335Z 35028G36KT M00/M01 A2996 RMK A01 T10011007  RH  097%=      5-min Rain = 0
KDMS 190340Z 35029G36KT M00/M01 A2997 RMK A01 T10011008  RH  097%=      5-min Rain = 0
KDMS 190345Z 35027G34KT M00/M01 A2997 RMK A01 T10021007  RH  097%=      5-min Rain = 0
KDMS 190350Z 35023KT M00/M01 A2998 RMK A01 T10021007  RH  098%=      5-min Rain = 0
KDMS 190355Z 34022G30KT M00/M01 A2998 RMK A01 T10021006  RH  099%=      5-min Rain = 0
KDMS 190400Z 34026G33KT M00/M01 A2999 RMK A01 T10021005  RH  099%=      5-min Rain = 0
KDMS 190405Z 34026G33KT M00/M01 A2999 RMK A01 T10021006  RH  099%=      5-min Rain = 0
KDMS 190410Z 34028G34KT M00/M01 A2999 RMK A01 T10031006  RH  099%=      5-min Rain = 0
KDMS 190415Z 34025G34KT M00/M01 A30 RMK A01 T10031006  RH  099%=      5-min Rain = 0
KDMS 190420Z 34026G34KT M00/M01 A30 RMK A01 T10031005  RH  099%=      5-min Rain = 0
KDMS 190425Z 34031G39KT M00/M01 A30 RMK A01 T10041006  RH  099%=      5-min Rain = 0
KDMS 190430Z 34030G39KT M01/M01 A3001 RMK A01 T10051007  RH  099%=      5-min Rain = 0
KDMS 190435Z 34027G32KT M01/M01 A3001 RMK A01 T10061008  RH  100%=      5-min Rain = 0
KDMS 190440Z 34028G35KT M01/M01 A3002 RMK A01 T10061007  RH  100%=      5-min Rain = 0
KDMS 190445Z 34028G35KT M01/M01 A3002 RMK A01 T10061008  RH  100%=      5-min Rain = 0
KDMS 190450Z 34027G33KT M01/M01 A3002 RMK A01 T10061008  RH  100%=      5-min Rain = 0
KDMS 190455Z 34026G33KT M01/M01 A3003 RMK A01 T10061008  RH  100%=      5-min Rain = 0
KDMS 190500Z 34026G35KT M01/M01 A3003 RMK A01 T10071008  RH  100%=      5-min Rain = 0
KDMS 190505Z 34027G33KT M01/M01 A3004 RMK A01 T10071008  RH  100%=      5-min Rain = 0
KDMS 190510Z 34025G32KT M01/M01 A3004 RMK A01 T10081009  RH  100%=      5-min Rain = 0
KDMS 190515Z 34025G33KT M01/M01 A3005 RMK A01 T10081009  RH  100%=      5-min Rain = 0
KDMS 190520Z 34026G33KT M01/M01 A3005 RMK A01 T10071009  RH  100%=      5-min Rain = 0
KDMS 190525Z 34023G28KT M01/M01 A3005 RMK A01 T10071009  RH  099%=      5-min Rain = 0
KDMS 190530Z 35024G30KT M01/M01 A3006 RMK A01 T10071010  RH  099%=      5-min Rain = 0
KDMS 190535Z 34026G33KT M01/M01 A3006 RMK A01 T10061010  RH  098%=      5-min Rain = 0
KDMS 190540Z 34026G32KT M01/M01 A3006 RMK A01 T10061011  RH  097%=      5-min Rain = 0
KDMS 190545Z 34024G30KT M01/M01 A3006 RMK A01 T10061011  RH  097%=      5-min Rain = 0
KDMS 190550Z 35027G34KT M01/M01 A3007 RMK A01 T10061013  RH  096%=      5-min Rain = 0
KDMS 190555Z 34025G33KT M01/M02 A3007 RMK A01 T10071015  RH  095%=      5-min Rain = 0

Page generated in 0.016 seconds.